createdAt,value
2019-06-08T00:00:58.074Z,19.67
2019-06-08T00:02:04.307Z,18.87
2019-06-08T00:03:10.013Z,19.47
2019-06-08T00:04:16.503Z,20.07
2019-06-08T00:05:23.102Z,19.43
2019-06-08T00:06:29.697Z,18.30
2019-06-08T00:07:35.490Z,18.13
2019-06-08T00:08:41.680Z,19.47
2019-06-08T00:09:47.594Z,18.07
2019-06-08T00:10:53.599Z,17.83
2019-06-08T00:11:59.140Z,17.73
2019-06-08T00:13:05.423Z,17.67
2019-06-08T00:14:10.421Z,18.27
2019-06-08T00:15:18.547Z,18.30
2019-06-08T00:16:24.102Z,17.27
2019-06-08T00:17:38.032Z,17.13
2019-06-08T00:18:36.703Z,17.23
2019-06-08T00:19:42.856Z,17.80
2019-06-08T00:20:47.868Z,18.03
2019-06-08T00:21:53.891Z,17.77
2019-06-08T00:22:59.033Z,17.17
2019-06-08T00:24:04.903Z,16.73
2019-06-08T00:25:09.943Z,18.27
2019-06-08T00:26:16.175Z,17.30
2019-06-08T00:27:23.009Z,18.63
2019-06-08T00:28:29.687Z,17.33
2019-06-08T00:29:35.373Z,17.00
2019-06-08T00:30:41.567Z,17.97
2019-06-08T00:31:46.690Z,17.13
2019-06-08T00:32:52.447Z,17.67
2019-06-08T00:33:57.571Z,17.30
2019-06-08T00:35:03.093Z,18.17
2019-06-08T00:36:08.167Z,17.17
2019-06-08T00:37:14.707Z,16.83
2019-06-08T00:38:21.039Z,17.57
2019-06-08T00:39:26.666Z,17.70
2019-06-08T00:40:31.650Z,18.30
2019-06-08T00:41:37.298Z,17.87
2019-06-08T00:42:43.034Z,17.07
2019-06-08T00:43:48.498Z,19.17
2019-06-08T00:44:53.623Z,19.10
2019-06-08T00:45:59.206Z,18.30
2019-06-08T00:47:04.150Z,17.90
2019-06-08T00:48:09.644Z,18.63
2019-06-08T00:49:16.410Z,19.40
2019-06-08T00:50:23.034Z,19.03
2019-06-08T00:51:29.704Z,19.13
2019-06-08T00:52:35.576Z,17.63
2019-06-08T00:53:41.174Z,17.93
2019-06-08T00:54:46.707Z,18.33
2019-06-08T00:55:51.760Z,17.67
2019-06-08T00:56:57.529Z,17.37
2019-06-08T00:58:02.942Z,16.50
2019-06-08T00:59:11.854Z,16.40
2019-06-08T01:00:18.311Z,17.60
2019-06-08T01:01:26.347Z,17.37
2019-06-08T01:02:31.495Z,17.10
2019-06-08T01:03:37.849Z,17.80
2019-06-08T01:04:42.864Z,17.60
2019-06-08T01:05:48.540Z,17.43
2019-06-08T01:06:53.587Z,17.37
2019-06-08T01:07:59.823Z,15.83
2019-06-08T01:09:06.480Z,16.13
2019-06-08T01:10:12.584Z,16.50
2019-06-08T01:11:18.652Z,15.87
2019-06-08T01:12:24.663Z,15.70
2019-06-08T01:13:29.759Z,15.97
2019-06-08T01:14:36.159Z,15.90
2019-06-08T01:15:41.454Z,15.80
2019-06-08T01:16:47.090Z,15.77
2019-06-08T01:18:02.024Z,16.10
2019-06-08T01:18:59.863Z,15.17
2019-06-08T01:20:06.008Z,15.30
2019-06-08T01:21:11.851Z,16.67
2019-06-08T01:22:16.951Z,16.67
2019-06-08T01:23:23.474Z,16.10
2019-06-08T01:24:29.908Z,15.87
2019-06-08T01:25:35.835Z,15.67
2019-06-08T01:26:40.987Z,16.93
2019-06-08T01:27:46.481Z,15.40
2019-06-08T01:28:51.644Z,16.23
2019-06-08T01:29:57.411Z,16.53
2019-06-08T01:31:02.923Z,16.30
2019-06-08T01:32:08.692Z,15.80
2019-06-08T01:33:13.901Z,15.07
2019-06-08T01:34:20.590Z,14.90
2019-06-08T01:35:26.928Z,15.17
2019-06-08T01:36:32.799Z,16.27
2019-06-08T01:37:37.937Z,13.20
2019-06-08T01:38:43.625Z,14.50
2019-06-08T01:39:48.610Z,14.30
2019-06-08T01:40:54.202Z,13.20
2019-06-08T01:41:59.795Z,14.27
2019-06-08T01:43:05.665Z,14.47
2019-06-08T01:44:10.589Z,14.27
2019-06-08T01:45:33.000Z,15.07
2019-06-08T01:46:38.343Z,15.60
2019-06-08T01:47:43.841Z,14.73
2019-06-08T01:48:48.939Z,14.20
2019-06-08T01:49:55.013Z,13.73
2019-06-08T01:50:59.998Z,13.93
2019-06-08T01:52:06.041Z,13.10
2019-06-08T01:53:11.182Z,13.30
2019-06-08T01:54:17.211Z,13.63
2019-06-08T01:55:23.008Z,14.00
2019-06-08T01:56:29.183Z,13.60
2019-06-08T01:57:34.502Z,12.77
2019-06-08T01:58:40.225Z,13.53
2019-06-08T01:59:45.218Z,13.10
2019-06-08T02:00:51.319Z,12.47
2019-06-08T02:01:56.444Z,12.37
2019-06-08T02:03:02.504Z,11.67
2019-06-08T02:04:08.243Z,12.30
2019-06-08T02:05:14.190Z,12.23
2019-06-08T02:06:19.546Z,11.67
2019-06-08T02:07:26.351Z,11.33
2019-06-08T02:08:32.662Z,11.70
2019-06-08T02:09:38.759Z,10.13
2019-06-08T02:10:44.779Z,10.83
2019-06-08T02:11:50.299Z,10.33
2019-06-08T02:12:55.385Z,10.37
2019-06-08T02:14:01.583Z,11.00
2019-06-08T02:15:07.574Z,10.87
2019-06-08T02:16:13.171Z,10.70
2019-06-08T02:17:18.794Z,9.90
2019-06-08T02:18:36.465Z,9.77
2019-06-08T02:19:32.664Z,10.30
2019-06-08T02:20:39.380Z,11.20
2019-06-08T02:21:44.475Z,10.50
2019-06-08T02:22:50.043Z,9.90
2019-06-08T02:23:55.212Z,10.50
2019-06-08T02:25:00.860Z,9.97
2019-06-08T02:26:05.964Z,8.90
2019-06-08T02:27:12.203Z,9.23
2019-06-08T02:28:17.320Z,9.90
2019-06-08T02:29:22.795Z,10.13
2019-06-08T02:30:36.020Z,10.23
2019-06-08T02:31:39.233Z,10.37
2019-06-08T02:32:44.056Z,9.70
2019-06-08T02:33:49.764Z,9.87
2019-06-08T02:34:54.726Z,9.90
2019-06-08T02:36:00.199Z,9.20
2019-06-08T02:37:05.254Z,10.50
2019-06-08T02:38:10.823Z,9.00
2019-06-08T02:39:15.893Z,9.93
2019-06-08T02:40:21.982Z,9.80
2019-06-08T02:41:28.852Z,9.40
2019-06-08T02:42:36.665Z,9.20
2019-06-08T02:43:41.548Z,10.97
2019-06-08T02:44:48.341Z,10.07
2019-06-08T02:45:53.293Z,10.40
2019-06-08T02:46:59.058Z,9.47
2019-06-08T02:48:04.164Z,8.77
2019-06-08T02:49:09.575Z,9.90
2019-06-08T02:50:15.300Z,9.97
2019-06-08T02:51:21.899Z,9.73
2019-06-08T02:52:27.124Z,9.80
2019-06-08T02:53:34.241Z,9.70
2019-06-08T02:54:41.174Z,9.07
2019-06-08T02:55:49.051Z,9.20
2019-06-08T02:56:56.359Z,8.57
2019-06-08T02:58:02.396Z,8.63
2019-06-08T02:59:09.112Z,8.20
2019-06-08T03:00:16.075Z,8.83
2019-06-08T03:01:22.423Z,8.97
2019-06-08T03:02:31.613Z,8.50
2019-06-08T03:03:38.414Z,8.80
2019-06-08T03:04:44.831Z,9.27
2019-06-08T03:05:51.142Z,8.97
2019-06-08T03:07:00.068Z,8.27
2019-06-08T03:08:07.074Z,8.83
2019-06-08T03:09:12.869Z,9.63
2019-06-08T03:10:18.107Z,8.80
2019-06-08T03:11:24.915Z,9.00
2019-06-08T03:12:31.113Z,9.07
2019-06-08T03:13:39.663Z,9.73
2019-06-08T03:14:47.310Z,10.23
2019-06-08T03:15:53.387Z,8.93
2019-06-08T03:16:58.466Z,9.90
2019-06-08T03:18:03.987Z,9.30
2019-06-08T03:19:20.753Z,9.43
2019-06-08T03:20:16.336Z,9.93
2019-06-08T03:21:21.604Z,9.87
2019-06-08T03:22:27.090Z,9.47
2019-06-08T03:23:34.034Z,9.50
2019-06-08T03:24:41.215Z,9.20
2019-06-08T03:25:53.029Z,10.03
2019-06-08T03:26:54.172Z,9.97
2019-06-08T03:27:59.164Z,9.17
2019-06-08T03:29:04.954Z,9.27
2019-06-08T03:30:17.623Z,9.20
2019-06-08T03:31:18.056Z,9.73
2019-06-08T03:32:23.260Z,9.37
2019-06-08T03:33:28.925Z,9.93
2019-06-08T03:34:35.593Z,9.07
2019-06-08T03:35:52.716Z,9.60
2019-06-08T03:36:55.376Z,9.30
2019-06-08T03:37:55.170Z,10.73
2019-06-08T03:39:00.206Z,10.70
2019-06-08T03:40:06.594Z,10.93
2019-06-08T03:41:11.841Z,10.63
2019-06-08T03:42:17.552Z,10.93
2019-06-08T03:43:22.836Z,10.47
2019-06-08T03:44:28.340Z,10.80
2019-06-08T03:45:34.274Z,10.63
2019-06-08T03:46:41.072Z,11.17
2019-06-08T03:47:46.810Z,10.50
2019-06-08T03:48:52.878Z,10.77
2019-06-08T03:49:57.998Z,11.40
2019-06-08T03:51:03.551Z,10.37
2019-06-08T03:52:09.306Z,10.77
2019-06-08T03:53:14.983Z,11.60
2019-06-08T03:54:19.983Z,10.80
2019-06-08T03:55:25.578Z,11.57
2019-06-08T03:56:31.120Z,9.80
2019-06-08T03:57:38.253Z,8.90
2019-06-08T03:58:44.985Z,10.90
2019-06-08T03:59:50.645Z,10.27
2019-06-08T04:00:56.259Z,10.40
2019-06-08T04:02:01.693Z,11.07
2019-06-08T04:03:07.533Z,10.33
2019-06-08T04:04:13.007Z,10.30
2019-06-08T04:05:18.033Z,11.37
2019-06-08T04:06:23.810Z,10.50
2019-06-08T04:07:28.703Z,9.30
2019-06-08T04:08:34.499Z,10.90
2019-06-08T04:09:41.589Z,10.50
2019-06-08T04:10:47.688Z,10.67
2019-06-08T04:11:52.849Z,10.67
2019-06-08T04:12:59.218Z,10.30
2019-06-08T04:14:05.890Z,10.00
2019-06-08T04:15:11.692Z,10.73
2019-06-08T04:16:17.286Z,10.63
2019-06-08T04:17:23.433Z,10.67
2019-06-08T04:18:28.539Z,10.50
2019-06-08T04:19:34.205Z,9.03
2019-06-08T04:20:40.303Z,9.23
2019-06-08T04:21:47.980Z,9.03
2019-06-08T04:22:53.009Z,8.30
2019-06-08T04:23:58.634Z,9.23
2019-06-08T04:25:03.485Z,9.23
2019-06-08T04:26:09.361Z,10.13
2019-06-08T04:27:14.697Z,10.63
2019-06-08T04:28:20.239Z,10.03
2019-06-08T04:29:25.182Z,10.50
2019-06-08T04:30:30.877Z,9.73
2019-06-08T04:31:37.720Z,9.90
2019-06-08T04:32:44.733Z,9.67
2019-06-08T04:33:50.884Z,9.73
2019-06-08T04:34:56.662Z,10.13
2019-06-08T04:36:01.536Z,10.10
2019-06-08T04:37:07.226Z,10.33
2019-06-08T04:38:12.200Z,10.50
2019-06-08T04:39:18.056Z,10.97
2019-06-08T04:40:23.492Z,9.90
2019-06-08T04:41:29.003Z,10.33
2019-06-08T04:42:34.043Z,10.77
2019-06-08T04:43:40.439Z,11.83
2019-06-08T04:44:46.890Z,11.60
2019-06-08T04:45:53.126Z,10.30
2019-06-08T04:46:58.327Z,10.43
2019-06-08T04:48:04.004Z,11.13
2019-06-08T04:49:08.884Z,10.30
2019-06-08T04:50:22.384Z,10.37
2019-06-08T04:51:21.457Z,11.17
2019-06-08T04:52:27.477Z,10.80
2019-06-08T04:53:32.596Z,9.50
2019-06-08T04:54:38.965Z,9.67
2019-06-08T04:55:45.144Z,9.73
2019-06-08T04:56:51.947Z,9.90
2019-06-08T04:57:57.705Z,10.23
2019-06-08T04:59:03.787Z,9.67
2019-06-08T05:00:12.683Z,10.03
2019-06-08T05:01:17.811Z,9.80
2019-06-08T05:02:23.497Z,10.30
2019-06-08T05:03:29.160Z,10.50
2019-06-08T05:04:34.269Z,10.80
2019-06-08T05:05:41.078Z,10.83
2019-06-08T05:06:47.199Z,10.00
2019-06-08T05:07:52.834Z,10.13
2019-06-08T05:08:57.997Z,10.33
2019-06-08T05:10:03.955Z,10.87
2019-06-08T05:11:09.073Z,10.73
2019-06-08T05:12:15.042Z,10.50
2019-06-08T05:13:20.657Z,10.80
2019-06-08T05:14:26.430Z,10.47
2019-06-08T05:15:32.055Z,9.67
2019-06-08T05:16:39.063Z,9.77
2019-06-08T05:17:45.427Z,10.20
2019-06-08T05:18:51.719Z,9.93
2019-06-08T05:19:57.275Z,10.43
2019-06-08T05:21:03.376Z,10.27
2019-06-08T05:22:08.467Z,10.20
2019-06-08T05:23:14.614Z,10.30
2019-06-08T05:24:20.700Z,10.20
2019-06-08T05:25:27.581Z,11.13
2019-06-08T05:26:33.520Z,10.10
2019-06-08T05:27:41.123Z,10.60
2019-06-08T05:28:47.375Z,11.53
2019-06-08T05:29:53.139Z,11.37
2019-06-08T05:30:58.749Z,10.67
2019-06-08T05:32:04.375Z,11.70
2019-06-08T05:33:09.795Z,11.33
2019-06-08T05:34:16.252Z,10.43
2019-06-08T05:35:21.607Z,10.43
2019-06-08T05:36:27.201Z,10.93
2019-06-08T05:37:32.725Z,11.07
2019-06-08T05:38:41.539Z,11.87
2019-06-08T05:39:47.800Z,12.07
2019-06-08T05:40:53.728Z,11.30
2019-06-08T05:41:58.757Z,12.53
2019-06-08T05:43:04.979Z,12.90
2019-06-08T05:44:09.975Z,12.57
2019-06-08T05:45:16.165Z,12.20
2019-06-08T05:46:21.324Z,12.13
2019-06-08T05:47:27.648Z,12.10
2019-06-08T05:48:32.628Z,12.53
2019-06-08T05:49:39.638Z,11.70
2019-06-08T05:51:00.187Z,11.50
2019-06-08T05:51:53.057Z,12.70
2019-06-08T05:52:58.781Z,12.67
2019-06-08T05:54:05.047Z,12.03
2019-06-08T05:55:10.599Z,12.07
2019-06-08T05:56:16.931Z,12.67
2019-06-08T05:57:22.832Z,12.80
2019-06-08T05:58:28.409Z,13.53
2019-06-08T05:59:34.041Z,13.07
2019-06-08T06:00:40.159Z,13.37
2019-06-08T06:01:46.708Z,12.33
2019-06-08T06:02:53.301Z,13.37
2019-06-08T06:03:58.895Z,12.70
2019-06-08T06:05:04.533Z,13.80
2019-06-08T06:06:10.099Z,12.80
2019-06-08T06:07:15.854Z,12.43
2019-06-08T06:08:20.985Z,13.17
2019-06-08T06:09:26.769Z,12.77
2019-06-08T06:10:32.275Z,13.80
2019-06-08T06:11:38.506Z,13.03
2019-06-08T06:12:45.281Z,14.70
2019-06-08T06:13:51.795Z,15.13
2019-06-08T06:14:57.317Z,14.67
2019-06-08T06:16:03.816Z,14.57
2019-06-08T06:17:09.958Z,14.10
2019-06-08T06:18:16.523Z,14.30
2019-06-08T06:19:22.825Z,14.13
2019-06-08T06:20:29.198Z,15.93
2019-06-08T06:21:35.318Z,15.53
2019-06-08T06:22:42.042Z,15.70
2019-06-08T06:23:49.304Z,15.70
2019-06-08T06:24:55.529Z,15.97
2019-06-08T06:26:01.321Z,16.43
2019-06-08T06:27:07.932Z,15.53
2019-06-08T06:28:13.756Z,15.63
2019-06-08T06:29:20.076Z,15.87
2019-06-08T06:30:25.735Z,15.60
2019-06-08T06:31:32.445Z,15.50
2019-06-08T06:32:38.784Z,15.70
2019-06-08T06:33:45.962Z,15.03
2019-06-08T06:34:52.180Z,15.07
2019-06-08T06:35:58.537Z,15.70
2019-06-08T06:37:04.309Z,15.53
2019-06-08T06:38:10.709Z,16.87
2019-06-08T06:39:16.336Z,15.07
2019-06-08T06:40:22.258Z,16.33
2019-06-08T06:41:27.936Z,16.97
2019-06-08T06:42:33.939Z,17.17
2019-06-08T06:43:40.183Z,17.40
2019-06-08T06:44:47.461Z,16.87
2019-06-08T06:45:53.789Z,17.10
2019-06-08T06:46:59.974Z,18.60
2019-06-08T06:48:05.891Z,16.43
2019-06-08T06:49:11.855Z,17.83
2019-06-08T06:50:18.262Z,17.97
2019-06-08T06:51:26.675Z,17.80
2019-06-08T06:52:31.687Z,17.70
2019-06-08T06:53:37.965Z,17.40
2019-06-08T06:54:44.693Z,16.47
2019-06-08T06:55:51.275Z,16.80
2019-06-08T06:56:57.094Z,18.17
2019-06-08T06:58:03.754Z,17.13
2019-06-08T06:59:09.351Z,17.63
2019-06-08T07:00:16.085Z,16.77
2019-06-08T07:01:21.247Z,16.27
2019-06-08T07:02:27.540Z,17.13
2019-06-08T07:03:32.625Z,16.83
2019-06-08T07:04:38.108Z,17.77
2019-06-08T07:05:43.726Z,15.83
2019-06-08T07:06:50.114Z,15.80
2019-06-08T07:07:55.122Z,16.53
2019-06-08T07:09:00.678Z,16.33
2019-06-08T07:10:06.516Z,15.97
2019-06-08T07:11:11.868Z,16.47
2019-06-08T07:12:16.866Z,15.73
2019-06-08T07:13:22.711Z,17.13
2019-06-08T07:14:27.835Z,16.47
2019-06-08T07:15:41.137Z,15.77
2019-06-08T07:16:40.214Z,17.70
2019-06-08T07:17:46.079Z,15.27
2019-06-08T07:18:52.424Z,16.63
2019-06-08T07:19:58.891Z,16.23
2019-06-08T07:21:11.137Z,15.83
2019-06-08T07:22:17.599Z,15.83
2019-06-08T07:23:22.675Z,16.03
2019-06-08T07:24:28.127Z,14.67
2019-06-08T07:25:33.014Z,15.97
2019-06-08T07:26:38.455Z,16.50
2019-06-08T07:27:43.567Z,17.07
2019-06-08T07:28:49.447Z,16.90
2019-06-08T07:29:55.664Z,16.67
2019-06-08T07:31:01.272Z,15.03
2019-06-08T07:32:06.168Z,15.27
2019-06-08T07:33:11.584Z,14.80
2019-06-08T07:34:16.632Z,15.37
2019-06-08T07:35:22.064Z,15.23
2019-06-08T07:36:29.531Z,14.70
2019-06-08T07:37:34.904Z,17.00
2019-06-08T07:38:39.867Z,15.80
2019-06-08T07:39:45.240Z,15.57
2019-06-08T07:40:50.080Z,15.80
2019-06-08T07:42:38.273Z,14.60
2019-06-08T07:43:43.658Z,14.10
2019-06-08T07:44:48.827Z,14.30
2019-06-08T07:45:54.243Z,14.73
2019-06-08T07:47:00.141Z,14.20
2019-06-08T07:48:05.816Z,14.77
2019-06-08T07:49:10.642Z,16.33
2019-06-08T07:50:16.244Z,14.43
2019-06-08T07:51:21.052Z,13.73
2019-06-08T07:52:26.435Z,13.43
2019-06-08T07:53:31.252Z,13.40
2019-06-08T07:54:36.656Z,14.10
2019-06-08T07:55:41.502Z,14.27
2019-06-08T07:56:46.955Z,13.53
2019-06-08T07:57:52.281Z,13.33
2019-06-08T07:58:59.064Z,13.27
2019-06-08T08:00:09.055Z,12.87
2019-06-08T08:01:11.235Z,13.13
2019-06-08T08:02:16.089Z,13.17
2019-06-08T08:03:21.447Z,14.60
2019-06-08T08:04:26.354Z,14.47
2019-06-08T08:05:31.756Z,13.00
2019-06-08T08:06:36.537Z,13.30
2019-06-08T08:07:42.027Z,12.93
2019-06-08T08:08:48.340Z,12.43
2019-06-08T08:09:54.948Z,12.70
2019-06-08T08:11:01.090Z,12.40
2019-06-08T08:12:06.738Z,12.50
2019-06-08T08:13:11.555Z,12.13
2019-06-08T08:14:17.026Z,11.93
2019-06-08T08:15:21.808Z,11.53
2019-06-08T08:16:27.310Z,11.80
2019-06-08T08:17:34.396Z,11.43
2019-06-08T08:18:39.436Z,11.93
2019-06-08T08:19:44.252Z,12.27
2019-06-08T08:20:51.020Z,11.67
2019-06-08T08:22:00.097Z,12.13
2019-06-08T08:23:06.256Z,12.20
2019-06-08T08:24:10.141Z,13.03
2019-06-08T08:25:18.046Z,12.27
2019-06-08T08:26:22.342Z,13.40
2019-06-08T08:27:28.139Z,12.30
2019-06-08T08:28:33.140Z,13.10
2019-06-08T08:29:38.657Z,13.63
2019-06-08T08:30:43.814Z,13.90
2019-06-08T08:31:50.386Z,14.13
2019-06-08T08:32:57.100Z,13.83
2019-06-08T08:34:05.528Z,13.03
2019-06-08T08:35:10.181Z,13.50
2019-06-08T08:36:15.603Z,13.70
2019-06-08T08:37:20.492Z,12.90
2019-06-08T08:38:27.263Z,12.73
2019-06-08T08:39:32.316Z,13.70
2019-06-08T08:40:38.870Z,13.17
2019-06-08T08:41:44.362Z,13.20
2019-06-08T08:42:50.732Z,13.40
2019-06-08T08:44:01.452Z,12.97
2019-06-08T08:45:05.486Z,12.73
2019-06-08T08:46:09.882Z,12.83
2019-06-08T08:47:15.254Z,12.47
2019-06-08T08:48:25.322Z,12.83
2019-06-08T08:49:28.094Z,12.87
2019-06-08T08:50:32.971Z,13.10
2019-06-08T08:51:38.510Z,12.57
2019-06-08T08:52:43.261Z,12.40
2019-06-08T08:53:53.839Z,13.57
2019-06-08T08:54:57.556Z,13.10
2019-06-08T08:56:02.498Z,11.40
2019-06-08T08:57:08.381Z,11.87
2019-06-08T08:58:13.948Z,10.67
2019-06-08T08:59:18.698Z,11.53
2019-06-08T09:00:24.363Z,10.90
2019-06-08T09:01:29.152Z,10.30
2019-06-08T09:02:34.536Z,11.30
2019-06-08T09:03:39.672Z,10.70
2019-06-08T09:04:47.578Z,10.13
2019-06-08T09:05:52.436Z,10.53
2019-06-08T09:07:05.546Z,10.93
2019-06-08T09:08:05.221Z,11.20
2019-06-08T09:09:10.787Z,10.10
2019-06-08T09:10:18.121Z,10.07
2019-06-08T09:11:22.988Z,11.30
2019-06-08T09:12:27.829Z,10.63
2019-06-08T09:13:33.343Z,11.93
2019-06-08T09:14:41.410Z,11.17
2019-06-08T09:15:47.856Z,11.57
2019-06-08T09:16:53.621Z,11.20
2019-06-08T09:18:02.542Z,10.73
2019-06-08T09:19:08.556Z,10.80
2019-06-08T09:20:15.961Z,10.53
2019-06-08T09:21:21.080Z,10.60
2019-06-08T09:22:28.230Z,10.13
2019-06-08T09:23:33.014Z,10.65
2019-06-08T09:24:39.094Z,10.53
2019-06-08T09:25:44.097Z,9.08
2019-06-08T09:26:49.577Z,9.37
2019-06-08T09:27:55.306Z,10.20
2019-06-08T09:29:04.865Z,10.47
2019-06-08T09:30:08.680Z,10.80
2019-06-08T09:31:14.180Z,11.53
2019-06-08T10:57:58.107Z,8.73
2019-06-08T10:59:06.350Z,8.23
2019-06-08T11:00:19.880Z,8.95
2019-06-08T11:01:19.113Z,8.78
2019-06-08T11:02:24.261Z,8.75
2019-06-08T11:03:30.695Z,9.05
2019-06-08T11:04:38.646Z,8.48
2019-06-08T11:05:43.266Z,9.28
2019-06-08T11:06:48.480Z,9.35
2019-06-08T11:07:54.121Z,9.25
2019-06-08T11:56:40.335Z,8.68
2019-06-08T11:57:45.741Z,8.60
2019-06-08T11:58:51.245Z,8.75
2019-06-08T11:59:58.453Z,8.35
2019-06-08T12:01:10.044Z,8.60
2019-06-08T12:02:14.245Z,9.10
2019-06-08T12:03:19.309Z,8.53
2019-06-08T12:04:24.792Z,9.13
2019-06-08T12:05:29.954Z,17.23
2019-06-08T12:06:37.525Z,8.98
2019-06-08T12:07:42.075Z,9.05
2019-06-08T12:08:47.583Z,9.38
2019-06-08T12:09:52.628Z,9.80
2019-06-08T12:11:02.005Z,9.80
2019-06-08T12:12:05.188Z,9.88
2019-06-08T12:13:12.813Z,10.23
2019-06-08T12:14:17.709Z,9.35
2019-06-08T12:15:23.659Z,9.18
2019-06-08T12:16:28.667Z,9.25
2019-06-08T12:17:34.115Z,9.65
2019-06-08T12:18:40.344Z,10.45
2019-06-08T12:19:47.625Z,9.95
2019-06-08T12:20:52.789Z,10.03
2019-06-08T12:21:58.269Z,10.30
2019-06-08T12:23:03.961Z,10.75
2019-06-08T12:24:10.380Z,10.10
2019-06-08T12:25:15.514Z,9.55
2019-06-08T12:26:21.065Z,10.58
2019-06-08T12:27:33.096Z,8.23
2019-06-08T12:28:32.967Z,7.67
2019-06-08T12:29:39.392Z,7.30
2019-06-08T12:30:47.634Z,6.43
2019-06-08T12:31:51.657Z,11.03
2019-06-08T12:32:58.119Z,5.50
2019-06-08T12:34:03.152Z,4.33
2019-06-08T12:35:10.988Z,4.80
2019-06-08T12:36:17.862Z,5.20
2019-06-08T12:37:23.330Z,4.73
2019-06-08T12:38:32.202Z,4.33
2019-06-08T12:39:35.775Z,4.13
2019-06-08T12:40:41.065Z,3.60
2019-06-08T12:41:47.886Z,3.53
2019-06-08T12:42:53.126Z,4.37
2019-06-08T12:43:58.625Z,4.03
2019-06-08T12:45:03.603Z,4.80
2019-06-08T12:46:11.055Z,4.67
2019-06-08T12:47:20.727Z,3.97
2019-06-08T12:48:25.443Z,4.20
2019-06-08T12:49:29.436Z,4.17
2019-06-08T12:50:34.959Z,4.80
2019-06-08T12:51:40.009Z,4.87
2019-06-08T12:52:47.530Z,4.17
2019-06-08T12:53:52.197Z,4.30
2019-06-08T12:55:05.986Z,3.97
2019-06-08T12:56:04.224Z,4.40
2019-06-08T12:57:13.803Z,5.10
2019-06-08T12:58:19.849Z,5.47
2019-06-08T12:59:23.539Z,5.83
2019-06-08T13:00:28.580Z,5.13
2019-06-08T13:01:34.211Z,5.73
2019-06-08T13:02:39.395Z,5.67
2019-06-08T13:03:44.888Z,5.33
2019-06-08T13:04:49.765Z,4.50
2019-06-08T13:05:57.435Z,5.43
2019-06-08T13:07:04.926Z,5.20
2019-06-08T13:08:13.356Z,4.37
2019-06-08T13:09:20.550Z,4.97
2019-06-08T13:10:27.760Z,4.77
2019-06-08T13:11:33.068Z,4.67
2019-06-08T13:12:40.921Z,4.93
2019-06-08T13:13:48.753Z,4.63
2019-06-08T13:14:54.227Z,4.40
2019-06-08T13:15:59.256Z,4.90
2019-06-08T13:17:05.118Z,5.63
2019-06-08T13:18:11.830Z,5.73
2019-06-08T13:19:17.438Z,4.63
2019-06-08T13:20:22.576Z,5.50
2019-06-08T13:21:34.685Z,4.63
2019-06-08T13:22:35.045Z,5.37
2019-06-08T13:23:41.281Z,4.80
2019-06-08T13:24:47.892Z,4.60
2019-06-08T13:25:53.518Z,4.80
2019-06-08T13:26:58.635Z,4.40
2019-06-08T13:28:04.322Z,4.83
2019-06-08T13:29:11.007Z,4.73
2019-06-08T13:30:22.863Z,3.80
2019-06-08T13:31:24.772Z,3.77
2019-06-08T13:32:30.442Z,4.07
2019-06-08T13:33:35.448Z,4.33
2019-06-08T13:34:41.175Z,4.17
2019-06-08T13:35:47.986Z,3.57
2019-06-08T13:36:54.144Z,3.73
2019-06-08T13:37:59.157Z,3.30
2019-06-08T13:39:05.400Z,3.57
2019-06-08T13:40:13.253Z,3.00
2019-06-08T13:41:24.130Z,3.10
2019-06-08T13:42:27.843Z,3.47
2019-06-08T13:43:32.610Z,3.13
2019-06-08T13:44:39.042Z,3.10
2019-06-08T13:45:44.484Z,3.20
2019-06-08T13:46:49.352Z,3.30
2019-06-08T13:47:54.930Z,3.00
2019-06-08T13:49:00.411Z,3.40
2019-06-08T13:50:08.236Z,3.23
2019-06-08T13:51:13.918Z,3.30
2019-06-08T13:52:22.443Z,3.37
2019-06-08T13:53:31.493Z,3.50
2019-06-08T13:54:34.597Z,3.37
2019-06-08T13:55:49.710Z,3.10
2019-06-08T13:56:47.923Z,3.40
2019-06-08T13:57:53.938Z,3.30
2019-06-08T13:58:59.539Z,3.50
2019-06-08T14:00:07.885Z,3.20
2019-06-08T14:01:13.520Z,3.40
2019-06-08T14:02:25.321Z,2.97
2019-06-08T14:03:28.013Z,3.20
2019-06-08T14:04:33.223Z,3.20
2019-06-08T14:05:39.251Z,3.03
2019-06-08T14:06:44.819Z,3.00
2019-06-08T14:07:51.688Z,3.00
2019-06-08T14:08:58.027Z,2.70
2019-06-08T14:10:05.945Z,2.70
2019-06-08T14:11:12.433Z,2.73
2019-06-08T14:12:20.140Z,2.50
2019-06-08T14:13:29.310Z,2.70
2019-06-08T14:14:33.651Z,1.90
2019-06-08T14:15:38.240Z,2.00
2019-06-08T14:16:50.099Z,2.30
2019-06-08T14:17:51.928Z,2.93
2019-06-08T14:19:00.188Z,2.23
2019-06-08T14:20:07.970Z,2.13
2019-06-08T14:21:13.395Z,2.17
2019-06-08T14:22:22.685Z,1.97
2019-06-08T14:23:26.469Z,1.90
2019-06-08T14:24:34.532Z,3.70
2019-06-08T14:25:50.156Z,1.83
2019-06-08T14:26:48.736Z,2.10
2019-06-08T14:27:54.707Z,2.00
2019-06-08T14:29:01.527Z,2.60
2019-06-08T14:30:08.523Z,2.50
2019-06-08T14:31:13.630Z,2.22
2019-06-08T14:32:20.731Z,2.40
2019-06-08T14:33:31.474Z,2.55
2019-06-08T14:34:34.014Z,2.72
2019-06-08T14:35:38.996Z,2.87
2019-06-08T14:36:44.687Z,2.67
2019-06-08T14:37:50.028Z,3.02
2019-06-08T14:38:55.666Z,3.10
2019-06-08T14:40:00.553Z,2.63
2019-06-08T14:41:07.718Z,2.60
2019-06-08T14:42:12.579Z,2.73
2019-06-08T14:43:19.541Z,2.70
2019-06-08T14:44:31.268Z,2.47
2019-06-08T14:45:33.927Z,2.17
2019-06-08T14:46:41.443Z,2.40
2019-06-08T14:47:47.571Z,2.63
2019-06-08T14:48:52.124Z,2.57
2019-06-08T14:49:58.441Z,2.67
2019-06-08T14:51:03.969Z,2.23
2019-06-08T14:52:10.888Z,1.90
2019-06-08T14:53:18.439Z,2.23
2019-06-08T14:54:27.232Z,2.37
2019-06-08T14:55:34.149Z,2.37
2019-06-08T14:56:38.007Z,2.50
2019-06-08T14:57:42.768Z,2.60
2019-06-08T14:58:48.397Z,2.60
2019-06-08T14:59:59.483Z,2.43
2019-06-08T15:01:03.515Z,2.93
2019-06-08T15:02:08.664Z,2.23
2019-06-08T15:03:14.187Z,2.30
2019-06-08T15:04:23.123Z,2.27
2019-06-08T15:05:29.056Z,2.47
2019-06-08T15:06:34.311Z,2.30
2019-06-08T15:07:40.097Z,2.20
2019-06-08T15:08:45.237Z,2.23
2019-06-08T15:09:50.791Z,2.17
2019-06-08T15:10:58.246Z,2.40
2019-06-08T15:12:03.267Z,2.20
2019-06-08T15:13:08.410Z,2.40
2019-06-08T15:14:14.371Z,2.17
2019-06-08T15:15:19.975Z,2.10
2019-06-08T15:16:25.827Z,2.10
2019-06-08T15:17:32.177Z,2.13
2019-06-08T15:18:38.550Z,2.40
2019-06-08T15:19:43.868Z,2.17
2019-06-08T15:20:49.609Z,2.20
2019-06-08T15:21:54.560Z,2.30
2019-06-08T15:22:59.956Z,2.57
2019-06-08T15:24:04.982Z,2.30
2019-06-08T15:25:11.169Z,3.10
2019-06-08T15:26:24.059Z,2.90
2019-06-08T15:27:24.794Z,3.10
2019-06-08T15:28:35.487Z,2.90
2019-06-08T15:29:37.800Z,2.60
2019-06-08T15:30:42.913Z,2.50
2019-06-08T15:31:50.830Z,2.57
2019-06-08T15:32:58.410Z,2.60
2019-06-08T15:34:03.164Z,2.70
2019-06-08T15:35:08.902Z,3.10
2019-06-08T15:36:14.392Z,2.40
2019-06-08T15:37:19.554Z,2.50
2019-06-08T15:38:28.021Z,2.70
2019-06-08T15:39:34.194Z,2.63
2019-06-08T15:40:41.308Z,2.70
2019-06-08T15:41:48.577Z,2.50
2019-06-08T15:42:53.203Z,2.50
2019-06-08T15:43:59.560Z,2.80
2019-06-08T15:45:08.079Z,3.13
2019-06-08T15:46:14.948Z,2.67
2019-06-08T15:47:20.604Z,2.70
2019-06-08T15:48:26.991Z,2.77
2019-06-08T15:49:33.917Z,2.87
2019-06-08T15:50:38.951Z,2.80
2019-06-08T15:51:44.554Z,2.53
2019-06-08T15:52:49.564Z,2.83
2019-06-08T15:53:55.054Z,2.80
2019-06-08T15:55:01.613Z,2.80
2019-06-08T15:56:08.376Z,2.63
2019-06-08T15:57:13.602Z,2.57
2019-06-08T15:58:18.976Z,2.93
2019-06-08T15:59:24.817Z,2.47
2019-06-08T16:00:32.793Z,2.60
2019-06-08T16:01:39.905Z,2.60
2019-06-08T16:02:46.802Z,3.03
2019-06-08T16:03:51.994Z,2.70
2019-06-08T16:04:57.436Z,2.53
2019-06-08T16:06:02.490Z,3.00
2019-06-08T16:07:08.339Z,2.90
2019-06-08T16:08:13.453Z,2.87
2019-06-08T16:09:18.799Z,2.50
2019-06-08T16:10:24.006Z,2.60
2019-06-08T16:11:30.283Z,2.80
2019-06-08T16:12:35.187Z,2.77
2019-06-08T16:13:40.530Z,2.77
2019-06-08T16:14:45.300Z,2.60
2019-06-08T16:15:51.356Z,2.57
2019-06-08T16:16:56.357Z,2.60
2019-06-08T16:18:01.802Z,2.70
2019-06-08T16:19:06.787Z,2.60
2019-06-08T16:20:12.269Z,2.80
2019-06-08T16:21:17.088Z,2.40
2019-06-08T16:22:22.474Z,2.43
2019-06-08T16:23:27.741Z,2.30
2019-06-08T16:24:33.985Z,2.60
2019-06-08T16:25:39.144Z,2.50
2019-06-08T16:26:53.413Z,2.50
2019-06-08T16:27:51.238Z,2.20
2019-06-08T16:28:56.590Z,2.70
2019-06-08T16:30:08.686Z,2.20
2019-06-08T16:31:09.285Z,2.20
2019-06-08T16:32:14.268Z,2.40
2019-06-08T16:33:19.600Z,2.10
2019-06-08T16:34:27.249Z,2.30
2019-06-08T16:35:33.541Z,1.93
2019-06-08T16:36:39.789Z,2.07